Time;durP1;ratioP1;P1;durP2;ratioP2;P2;SDS_P1;SDS_P2;PMS_P1;PMS_P2;Temp;Humidity;BMP_temperature;BMP_pressure;BME280_temperature;BME280_humidity;BME280_pressure;Samples;Min_cycle;Max_cycle;Signal;HPM_P1;HPM_P2
2022/05/11 00:02:24;;;;;;;;;;;10.10;77.40;;;;;;5091323;28;20318;-71
2022/05/11 00:04:49;;;;;;;;;;;10.10;77.60;;;;;;5091720;28;19912;-71
2022/05/11 00:07:15;;;;;;;;;;;10.10;77.70;;;;;;5091115;28;19974;-71
2022/05/11 00:09:40;;;;;;;;;;;10.10;78.00;;;;;;5091677;28;19912;-71
2022/05/11 00:12:07;;;;;;;;;;;10.10;78.00;;;;;;5091191;28;20316;-71
2022/05/11 00:14:33;;;;;;;;;;;10.10;77.70;;;;;;5091139;28;19912;-72
2022/05/11 00:16:59;;;;;;;;;;;10.10;77.90;;;;;;5091178;28;19969;-71
2022/05/11 00:19:25;;;;;;;;;;;10.00;78.00;;;;;;5091186;28;19932;-71
2022/05/11 00:21:50;;;;;;;;;;;10.00;78.60;;;;;;5091132;28;20003;-71
2022/05/11 00:24:16;;;;;;;;;;;10.10;79.20;;;;;;5092096;28;19924;-72
2022/05/11 00:26:41;;;;;;;;;;;10.00;79.20;;;;;;5094993;28;19912;-71
2022/05/11 00:29:07;;;;;;;;;;;10.00;79.30;;;;;;5095507;28;19966;-71
2022/05/11 00:31:32;;;;;;;;;;;10.00;78.70;;;;;;5095364;28;19947;-72
2022/05/11 00:33:58;;;;;;;;;;;10.00;79.30;;;;;;5095292;28;20310;-71
2022/05/11 00:36:24;;;;;;;;;;;10.00;79.10;;;;;;5095059;28;20321;-72
2022/05/11 00:38:50;;;;;;;;;;;10.00;79.40;;;;;;5093673;28;20239;-71
2022/05/11 00:41:15;;;;;;;;;;;10.00;79.40;;;;;;5095036;28;19912;-71
2022/05/11 00:43:52;;;;;;;;;;;10.00;79.50;;;;;;5094994;28;19927;-71
2022/05/11 00:46:18;;;;;;;;;;;10.00;79.50;;;;;;5095172;28;20431;-71
2022/05/11 00:51:32;;;;;;;;;;;10.00;80.10;;;;;;5094936;28;20427;-71
2022/05/11 00:53:57;;;;;;;;;;;10.00;79.60;;;;;;5093408;28;19916;-71
2022/05/11 00:56:23;;;;;;;;;;;9.90;79.30;;;;;;5094721;28;20323;-72
2022/05/11 00:58:51;;;;;;;;;;;9.80;79.50;;;;;;5094818;28;19920;-71
2022/05/11 01:01:17;;;;;;;;;;;9.90;79.50;;;;;;5094568;28;19912;-71
2022/05/11 01:03:55;;;;;;;;;;;9.90;79.50;;;;;;5094616;28;20015;-71
2022/05/11 01:06:22;;;;;;;;;;;9.90;79.50;;;;;;5094723;28;19912;-71
2022/05/11 01:08:47;;;;;;;;;;;9.80;80.00;;;;;;5094368;28;19950;-71
2022/05/11 01:11:13;;;;;;;;;;;9.80;80.60;;;;;;5093127;28;20326;-72
2022/05/11 01:13:40;;;;;;;;;;;9.80;80.90;;;;;;5094363;28;19916;-71
2022/05/11 01:16:06;;;;;;;;;;;9.80;80.10;;;;;;5094373;28;20040;-72
2022/05/11 01:18:32;;;;;;;;;;;9.80;78.80;;;;;;5094435;28;19920;-71
2022/05/11 01:20:58;;;;;;;;;;;9.90;77.60;;;;;;5092891;28;19927;-71
2022/05/11 01:23:36;;;;;;;;;;;9.90;76.50;;;;;;5093007;28;19920;-71
2022/05/11 01:26:02;;;;;;;;;;;10.00;76.50;;;;;;5092831;28;20420;-71
2022/05/11 01:28:27;;;;;;;;;;;10.10;77.30;;;;;;5091514;28;19924;-71
2022/05/11 01:30:59;;;;;;;;;;;10.10;76.30;;;;;;5092880;28;19969;-71
2022/05/11 01:33:25;;;;;;;;;;;10.20;76.30;;;;;;5092843;28;19916;-71
2022/05/11 01:35:56;;;;;;;;;;;10.20;76.30;;;;;;5092288;28;19931;-71
2022/05/11 01:38:28;;;;;;;;;;;10.20;76.10;;;;;;5092695;28;20452;-71
2022/05/11 01:40:53;;;;;;;;;;;10.20;76.00;;;;;;5092719;28;20352;-72
2022/05/11 01:43:20;;;;;;;;;;;10.20;75.90;;;;;;5091210;28;19923;-71
2022/05/11 01:45:46;;;;;;;;;;;10.20;76.20;;;;;;5092916;28;19912;-71
2022/05/11 01:48:11;;;;;;;;;;;10.20;75.60;;;;;;5092504;28;19927;-71
2022/05/11 01:50:37;;;;;;;;;;;10.10;75.50;;;;;;5092915;28;19908;-72
2022/05/11 01:53:03;;;;;;;;;;;10.10;76.30;;;;;;5092392;28;19967;-71
2022/05/11 01:55:29;;;;;;;;;;;10.10;77.30;;;;;;5092510;28;19909;-71
2022/05/11 01:57:54;;;;;;;;;;;10.10;75.90;;;;;;5092438;28;19908;-71
2022/05/11 02:00:19;;;;;;;;;;;10.10;75.60;;;;;;5092421;28;19914;-71
2022/05/11 02:02:45;;;;;;;;;;;10.00;75.50;;;;;;5091030;28;19961;-71
2022/05/11 02:07:55;;;;;;;;;;;10.00;76.50;;;;;;5092119;28;20493;-72
2022/05/11 02:10:25;;;;;;;;;;;9.70;75.20;;;;;;5092214;28;19931;-72
2022/05/11 02:12:51;;;;;;;;;;;10.00;75.40;;;;;;5092080;28;19914;-71
2022/05/11 02:15:17;;;;;;;;;;;10.00;75.60;;;;;;5092010;28;20287;-72
2022/05/11 02:17:43;;;;;;;;;;;10.00;75.80;;;;;;5092313;28;19907;-71
2022/05/11 02:20:10;;;;;;;;;;;10.00;75.70;;;;;;5025496;28;1889329;-71
2022/05/11 02:22:35;;;;;;;;;;;9.90;75.60;;;;;;5093189;28;19954;-72
2022/05/11 02:25:01;;;;;;;;;;;10.00;76.40;;;;;;5093377;28;20332;-71
2022/05/11 02:27:26;;;;;;;;;;;10.00;76.10;;;;;;5092889;28;19970;-71
2022/05/11 02:29:52;;;;;;;;;;;10.00;75.90;;;;;;5093342;28;19999;-71
2022/05/11 02:32:17;;;;;;;;;;;10.00;75.90;;;;;;5091605;28;19920;-71
2022/05/11 02:37:28;;;;;;;;;;;10.00;76.30;;;;;;5093213;28;19927;-72
2022/05/11 02:39:53;;;;;;;;;;;10.00;75.90;;;;;;5093132;28;19908;-72
2022/05/11 02:42:19;;;;;;;;;;;10.00;75.60;;;;;;5092714;28;20346;-71
2022/05/11 02:44:45;;;;;;;;;;;10.10;76.30;;;;;;5091418;28;19955;-71
2022/05/11 02:47:12;;;;;;;;;;;10.00;75.50;;;;;;5091783;28;19928;-71
2022/05/11 02:49:37;;;;;;;;;;;10.00;75.50;;;;;;5092930;28;19916;-72
2022/05/11 02:52:03;;;;;;;;;;;10.00;75.20;;;;;;5091214;28;20248;-72
2022/05/11 02:54:28;;;;;;;;;;;10.00;74.90;;;;;;5092792;28;19908;-71
2022/05/11 02:56:54;;;;;;;;;;;10.00;74.90;;;;;;5091125;28;19923;-71
2022/05/11 02:59:19;;;;;;;;;;;10.10;75.50;;;;;;5092264;28;19908;-72
2022/05/11 03:01:45;;;;;;;;;;;10.00;75.80;;;;;;5092634;28;19970;-71
2022/05/11 03:04:10;;;;;;;;;;;10.00;75.20;;;;;;5092524;28;19951;-71
2022/05/11 03:06:36;;;;;;;;;;;10.10;74.80;;;;;;5092215;28;19925;-72
2022/05/11 03:09:01;;;;;;;;;;;10.10;74.50;;;;;;5092424;28;19919;-71
2022/05/11 03:11:27;;;;;;;;;;;10.10;74.60;;;;;;5092223;28;19924;-72
2022/05/11 03:13:52;;;;;;;;;;;10.10;75.30;;;;;;5092251;28;19987;-71
2022/05/11 03:16:18;;;;;;;;;;;10.10;74.40;;;;;;5092399;28;19969;-71
2022/05/11 03:18:43;;;;;;;;;;;10.10;74.40;;;;;;5091930;28;19919;-71
2022/05/11 03:21:09;;;;;;;;;;;10.60;74.50;;;;;;5091986;28;19981;-71
2022/05/11 03:23:34;;;;;;;;;;;10.20;74.50;;;;;;5091886;28;20360;-71
2022/05/11 03:26:00;;;;;;;;;;;10.30;75.00;;;;;;5091819;28;20007;-71
2022/05/11 03:28:25;;;;;;;;;;;10.30;74.60;;;;;;5091826;28;19923;-72
2022/05/11 03:30:51;;;;;;;;;;;10.30;74.40;;;;;;5092065;28;19912;-71
2022/05/11 03:36:01;;;;;;;;;;;10.30;74.40;;;;;;5091965;28;20387;-72
2022/05/11 03:38:26;;;;;;;;;;;10.30;74.20;;;;;;5091984;28;19912;-72
2022/05/11 03:40:52;;;;;;;;;;;10.20;74.20;;;;;;5091649;28;20293;-71
2022/05/11 03:43:17;;;;;;;;;;;10.30;74.20;;;;;;5090173;28;20000;-71
2022/05/11 03:45:43;;;;;;;;;;;10.30;74.30;;;;;;5091547;28;20360;-71
2022/05/11 03:48:08;;;;;;;;;;;10.40;74.40;;;;;;5091532;28;19998;-71
2022/05/11 03:50:34;;;;;;;;;;;10.40;74.10;;;;;;5090506;28;19916;-72
2022/05/11 03:52:59;;;;;;;;;;;10.50;74.20;;;;;;5091525;28;19908;-71
2022/05/11 03:55:26;;;;;;;;;;;10.60;73.90;;;;;;5091371;28;19923;-71
2022/05/11 03:57:51;;;;;;;;;;;10.60;73.70;;;;;;5091288;28;20427;-70
2022/05/11 04:00:20;;;;;;;;;;;10.80;73.90;;;;;;5091309;28;19928;-72
2022/05/11 04:02:45;;;;;;;;;;;10.70;73.60;;;;;;5091434;28;19912;-72
2022/05/11 04:05:11;;;;;;;;;;;10.80;73.60;;;;;;5091620;28;19912;-72
2022/05/11 04:07:37;;;;;;;;;;;10.90;73.10;;;;;;5091395;28;20407;-71
2022/05/11 04:10:03;;;;;;;;;;;11.00;72.90;;;;;;5091702;28;19958;-71
2022/05/11 04:12:30;;;;;;;;;;;11.00;73.00;;;;;;5091219;28;19952;-71
2022/05/11 04:14:56;;;;;;;;;;;11.00;73.20;;;;;;5091674;28;19912;-71
2022/05/11 04:17:21;;;;;;;;;;;11.10;73.40;;;;;;5090251;28;20344;-72
2022/05/11 04:19:47;;;;;;;;;;;11.10;72.20;;;;;;5091167;28;19924;-71
2022/05/11 04:22:12;;;;;;;;;;;11.20;72.30;;;;;;5091582;28;19969;-71
2022/05/11 04:24:38;;;;;;;;;;;11.30;71.80;;;;;;5091542;28;19912;-70
2022/05/11 04:27:03;;;;;;;;;;;11.30;71.80;;;;;;5090980;28;19920;-71
2022/05/11 04:29:30;;;;;;;;;;;11.40;71.90;;;;;;5089915;28;19958;-70
2022/05/11 04:31:56;;;;;;;;;;;11.50;71.80;;;;;;5089602;28;19919;-71
2022/05/11 04:34:21;;;;;;;;;;;11.60;71.70;;;;;;5091301;28;19912;-70
2022/05/11 04:36:47;;;;;;;;;;;11.50;71.30;;;;;;5091012;28;20347;-71
2022/05/11 04:39:13;;;;;;;;;;;11.70;71.40;;;;;;5091370;28;20002;-71
2022/05/11 04:41:38;;;;;;;;;;;11.80;70.90;;;;;;5091036;28;20317;-70
2022/05/11 04:44:04;;;;;;;;;;;11.90;71.30;;;;;;5091190;28;19916;-71
2022/05/11 04:46:33;;;;;;;;;;;12.00;71.00;;;;;;5090856;28;20062;-71
2022/05/11 04:49:16;;;;;;;;;;;12.10;70.50;;;;;;5091180;28;19916;-71
2022/05/11 04:51:50;;;;;;;;;;;12.20;70.20;;;;;;5090923;28;19912;-71
2022/05/11 04:54:16;;;;;;;;;;;12.30;70.10;;;;;;5090856;28;19919;-70
2022/05/11 04:56:41;;;;;;;;;;;12.40;69.60;;;;;;5089505;28;19957;-71
2022/05/11 04:59:08;;;;;;;;;;;12.50;69.40;;;;;;5091162;28;20016;-70
2022/05/11 05:01:34;;;;;;;;;;;12.60;69.30;;;;;;5089273;28;20395;-70
2022/05/11 05:03:59;;;;;;;;;;;12.70;68.80;;;;;;5090761;28;19965;-70
2022/05/11 05:06:25;;;;;;;;;;;12.70;68.70;;;;;;5090880;28;20004;-70
2022/05/11 05:08:54;;;;;;;;;;;12.90;68.90;;;;;;5090969;28;20382;-71
2022/05/11 05:11:20;;;;;;;;;;;13.10;69.10;;;;;;5093021;28;19923;-72
2022/05/11 05:13:46;;;;;;;;;;;13.30;68.50;;;;;;5093111;28;19916;-71
2022/05/11 05:16:11;;;;;;;;;;;13.40;66.50;;;;;;5094560;28;19912;-71
2022/05/11 05:18:37;;;;;;;;;;;13.50;66.70;;;;;;5092833;28;19970;-70
2022/05/11 05:21:02;;;;;;;;;;;13.60;66.30;;;;;;5094286;28;19959;-71
2022/05/11 05:23:28;;;;;;;;;;;13.70;65.80;;;;;;5094553;28;19923;-70
2022/05/11 05:25:53;;;;;;;;;;;13.60;65.70;;;;;;5094181;28;19912;-70
2022/05/11 05:31:08;;;;;;;;;;;13.60;65.70;;;;;;5094381;28;20001;-70
2022/05/11 05:33:34;;;;;;;;;;;13.80;66.30;;;;;;5094244;28;19956;-70
2022/05/11 05:36:00;;;;;;;;;;;13.90;65.80;;;;;;5092741;28;19912;-71
2022/05/11 05:38:27;;;;;;;;;;;14.10;65.60;;;;;;5094141;28;19912;-70
2022/05/11 05:40:54;;;;;;;;;;;14.10;65.90;;;;;;5093912;28;19954;-71
2022/05/11 05:43:20;;;;;;;;;;;14.00;65.80;;;;;;5093773;28;19965;-71
2022/05/11 05:45:47;;;;;;;;;;;14.30;66.20;;;;;;5092615;28;19982;-70
2022/05/11 05:48:12;;;;;;;;;;;14.30;65.50;;;;;;5093693;28;19926;-70
2022/05/11 05:50:38;;;;;;;;;;;14.80;65.70;;;;;;5093868;28;19998;-70
2022/05/11 05:53:03;;;;;;;;;;;14.60;66.10;;;;;;5093729;28;19915;-71
2022/05/11 05:55:29;;;;;;;;;;;14.80;64.20;;;;;;5093715;28;19926;-70
2022/05/11 05:57:54;;;;;;;;;;;14.90;65.30;;;;;;5093468;28;20349;-70
2022/05/11 06:00:20;;;;;;;;;;;15.10;63.70;;;;;;5092175;28;19916;-70
2022/05/11 06:02:45;;;;;;;;;;;15.20;63.20;;;;;;5093426;28;19999;-71
2022/05/11 06:05:15;;;;;;;;;;;15.30;62.80;;;;;;5093990;28;20399;-71
2022/05/11 06:07:41;;;;;;;;;;;15.20;62.50;;;;;;5093301;28;20076;-71
2022/05/11 06:10:06;;;;;;;;;;;15.20;63.20;;;;;;5093697;28;20037;-71
2022/05/11 06:12:32;;;;;;;;;;;15.20;62.70;;;;;;5093213;28;20279;-71
2022/05/11 06:14:57;;;;;;;;;;;15.40;64.30;;;;;;5093130;28;19923;-70
2022/05/11 06:17:23;;;;;;;;;;;15.60;63.30;;;;;;5093113;28;19912;-70
2022/05/11 06:19:52;;;;;;;;;;;15.80;62.70;;;;;;5091585;28;19920;-71
2022/05/11 06:22:18;;;;;;;;;;;15.90;63.00;;;;;;5091945;28;20372;-71
2022/05/11 06:24:43;;;;;;;;;;;16.10;63.00;;;;;;5093554;28;20342;-71
2022/05/11 06:27:16;;;;;;;;;;;16.20;61.60;;;;;;5093093;28;19969;-70
2022/05/11 06:29:42;;;;;;;;;;;16.30;61.00;;;;;;5093450;28;19997;-70
2022/05/11 06:32:07;;;;;;;;;;;16.30;60.70;;;;;;5093260;28;19919;-70
2022/05/11 06:34:33;;;;;;;;;;;16.20;60.60;;;;;;5093291;28;19912;-70
2022/05/11 06:36:58;;;;;;;;;;;16.40;60.20;;;;;;5092844;28;20423;-71
2022/05/11 06:39:24;;;;;;;;;;;16.30;61.50;;;;;;5093191;28;19916;-71
2022/05/11 06:41:49;;;;;;;;;;;16.50;60.90;;;;;;5091434;28;19918;-70
2022/05/11 06:44:15;;;;;;;;;;;16.60;60.10;;;;;;5092982;28;20296;-70
2022/05/11 06:46:40;;;;;;;;;;;16.80;59.60;;;;;;5092626;28;19916;-70
2022/05/11 06:49:06;;;;;;;;;;;16.70;59.20;;;;;;5093022;28;19916;-71
2022/05/11 06:51:32;;;;;;;;;;;16.80;59.60;;;;;;5092742;28;20284;-70
2022/05/11 06:59:27;;;;;;;;;;;17.40;59.70;;;;;;5092484;28;19919;-71
2022/05/11 07:01:54;;;;;;;;;;;17.50;59.10;;;;;;5092622;28;19995;-70
2022/05/11 07:04:22;;;;;;;;;;;17.60;57.70;;;;;;5092744;28;20007;-70
2022/05/11 07:06:52;;;;;;;;;;;17.50;56.50;;;;;;5092156;28;19965;-70
2022/05/11 07:09:17;;;;;;;;;;;17.40;56.90;;;;;;5092542;28;20326;-71
2022/05/11 07:14:27;;;;;;;;;;;17.20;58.60;;;;;;5092558;28;19977;-71
2022/05/11 07:16:54;;;;;;;;;;;17.20;58.40;;;;;;5092221;28;19912;-70
2022/05/11 07:19:22;;;;;;;;;;;17.20;58.40;;;;;;5090318;28;19926;-69
2022/05/11 07:21:47;;;;;;;;;;;17.20;59.40;;;;;;5090719;28;19912;-69
2022/05/11 07:24:12;;;;;;;;;;;17.50;59.60;;;;;;5091994;28;20427;-70
2022/05/11 07:26:38;;;;;;;;;;;17.80;58.40;;;;;;5092019;28;19965;-70
2022/05/11 07:29:04;;;;;;;;;;;17.80;57.80;;;;;;5092137;28;19923;-70
2022/05/11 07:31:30;;;;;;;;;;;17.90;57.50;;;;;;5090632;28;19912;-70
2022/05/11 07:33:55;;;;;;;;;;;18.00;57.20;;;;;;5091637;28;19919;-71
2022/05/11 07:36:21;;;;;;;;;;;18.00;57.20;;;;;;5092385;28;19912;-71
2022/05/11 07:38:46;;;;;;;;;;;18.10;57.50;;;;;;5091827;28;20012;-71
2022/05/11 07:41:12;;;;;;;;;;;18.20;57.10;;;;;;5091856;28;20379;-70
2022/05/11 07:43:38;;;;;;;;;;;18.50;56.80;;;;;;5091747;28;20275;-70
2022/05/11 07:46:03;;;;;;;;;;;18.50;56.70;;;;;;5090378;28;19923;-70
2022/05/11 07:48:29;;;;;;;;;;;18.40;56.90;;;;;;5091678;28;19916;-70
2022/05/11 07:50:55;;;;;;;;;;;18.20;56.60;;;;;;5090348;28;19912;-70
2022/05/11 07:53:20;;;;;;;;;;;18.20;57.40;;;;;;5091588;28;19938;-71
2022/05/11 07:55:46;;;;;;;;;;;18.30;57.70;;;;;;5091410;28;19913;-70
2022/05/11 08:00:56;;;;;;;;;;;18.60;56.40;;;;;;5092122;28;19918;-70
2022/05/11 08:03:21;;;;;;;;;;;18.70;56.30;;;;;;5091594;28;20338;-69
2022/05/11 08:05:47;;;;;;;;;;;18.80;56.10;;;;;;5091404;28;19919;-70
2022/05/11 08:08:12;;;;;;;;;;;18.90;55.60;;;;;;5091341;28;20367;-69
2022/05/11 08:10:40;;;;;;;;;;;18.90;55.50;;;;;;5091419;28;19941;-71
2022/05/11 08:13:07;;;;;;;;;;;19.10;56.10;;;;;;5091535;28;19908;-70
2022/05/11 08:15:34;;;;;;;;;;;19.30;57.30;;;;;;5089822;28;20355;-70
2022/05/11 08:18:00;;;;;;;;;;;19.60;56.30;;;;;;5091216;28;19912;-70
2022/05/11 08:20:28;;;;;;;;;;;19.80;55.50;;;;;;5091153;28;20380;-71
2022/05/11 08:22:54;;;;;;;;;;;19.90;55.20;;;;;;5091334;28;20005;-71
2022/05/11 08:25:22;;;;;;;;;;;19.90;54.80;;;;;;5091154;28;20065;-72
2022/05/11 08:27:48;;;;;;;;;;;20.00;55.10;;;;;;5091136;28;19913;-71
2022/05/11 08:35:43;;;;;;;;;;;20.20;53.90;;;;;;5091124;28;20008;-70
2022/05/11 08:38:11;;;;;;;;;;;20.10;54.40;;;;;;5091228;28;19947;-70
2022/05/11 08:40:39;;;;;;;;;;;20.30;53.90;;;;;;5091401;28;20104;-70
2022/05/11 08:43:06;;;;;;;;;;;20.50;53.80;;;;;;5089827;28;19951;-69
2022/05/11 08:45:39;;;;;;;;;;;20.50;53.50;;;;;;5092275;28;20256;-70
2022/05/11 08:48:08;;;;;;;;;;;20.70;53.40;;;;;;5095339;28;19961;-70
2022/05/11 08:50:36;;;;;;;;;;;20.80;53.70;;;;;;5095010;28;19977;-70
2022/05/11 08:53:03;;;;;;;;;;;20.80;53.40;;;;;;5095007;28;19912;-69
2022/05/11 08:55:32;;;;;;;;;;;20.90;53.50;;;;;;5094930;28;19912;-69
2022/05/11 08:58:02;;;;;;;;;;;21.10;53.20;;;;;;5094896;28;19955;-69
2022/05/11 09:00:28;;;;;;;;;;;21.50;52.40;;;;;;5094728;28;19916;-69
2022/05/11 09:02:59;;;;;;;;;;;21.60;52.30;;;;;;5093491;28;19919;-70
2022/05/11 09:05:27;;;;;;;;;;;21.60;52.50;;;;;;5094509;28;19939;-69
2022/05/11 09:07:54;;;;;;;;;;;21.70;52.30;;;;;;5094267;28;20147;-69
2022/05/11 09:10:22;;;;;;;;;;;21.80;51.70;;;;;;5094462;28;20007;-69
2022/05/11 09:12:51;;;;;;;;;;;21.80;51.70;;;;;;5094756;28;20378;-71
2022/05/11 09:15:16;;;;;;;;;;;21.80;52.40;;;;;;5094546;28;20463;-70
2022/05/11 09:17:42;;;;;;;;;;;21.80;51.80;;;;;;5093416;28;19912;-71
2022/05/11 09:20:09;;;;;;;;;;;21.60;51.40;;;;;;5094346;28;19973;-72
2022/05/11 09:22:40;;;;;;;;;;;21.70;52.30;;;;;;5094574;28;19919;-70
2022/05/11 09:25:26;;;;;;;;;;;21.80;52.20;;;;;;5094902;28;19920;-70
2022/05/11 09:28:11;;;;;;;;;;;21.90;52.40;;;;;;5092920;28;19920;-69
2022/05/11 09:30:36;;;;;;;;;;;21.90;52.60;;;;;;5094213;28;19912;-68
2022/05/11 09:33:14;;;;;;;;;;;22.00;52.40;;;;;;5094182;28;19908;-69
2022/05/11 09:35:40;;;;;;;;;;;22.10;51.80;;;;;;5094284;28;20426;-69
2022/05/11 09:38:25;;;;;;;;;;;21.90;50.90;;;;;;5094435;28;20288;-71
2022/05/11 09:41:09;;;;;;;;;;;21.60;51.40;;;;;;5094099;28;19919;-70
2022/05/11 09:43:40;;;;;;;;;;;21.60;52.00;;;;;;5094139;28;20003;-70
2022/05/11 09:46:29;;;;;;;;;;;21.80;51.70;;;;;;5093940;28;19918;-70
2022/05/11 09:48:57;;;;;;;;;;;21.90;51.50;;;;;;5085788;28;19922;-70
2022/05/11 09:51:29;;;;;;;;;;;22.10;51.60;;;;;;5093719;28;19912;-70
2022/05/11 09:53:57;;;;;;;;;;;22.10;51.40;;;;;;5094330;28;20470;-70
2022/05/11 09:56:29;;;;;;;;;;;22.10;51.70;;;;;;5093531;28;20296;-68
2022/05/11 09:58:54;;;;;;;;;;;22.00;51.50;;;;;;5094409;28;19912;-70
2022/05/11 10:01:27;;;;;;;;;;;22.00;51.40;;;;;;5093874;28;19918;-68
2022/05/11 10:03:55;;;;;;;;;;;21.90;51.00;;;;;;5093811;28;19942;-67
2022/05/11 10:06:21;;;;;;;;;;;22.00;52.00;;;;;;5093352;28;19951;-67
2022/05/11 10:08:48;;;;;;;;;;;22.20;51.50;;;;;;5093731;28;19912;-67
2022/05/11 10:11:18;;;;;;;;;;;22.60;50.90;;;;;;5092155;28;19920;-68
2022/05/11 10:13:48;;;;;;;;;;;23.00;50.50;;;;;;5093730;28;19955;-68
2022/05/11 10:21:56;;;;;;;;;;;23.20;49.50;;;;;;5093737;28;20422;-69
2022/05/11 10:24:43;;;;;;;;;;;23.30;49.70;;;;;;5093767;28;19930;-68
2022/05/11 10:27:17;;;;;;;;;;;23.70;49.50;;;;;;5093060;28;19920;-69
2022/05/11 10:29:51;;;;;;;;;;;23.80;48.80;;;;;;5093527;28;20367;-71
2022/05/11 10:32:16;;;;;;;;;;;23.40;48.70;;;;;;5093027;28;19949;-69
2022/05/11 10:34:47;;;;;;;;;;;23.60;48.70;;;;;;5093186;28;19913;-68
2022/05/11 10:37:19;;;;;;;;;;;24.20;48.50;;;;;;5092795;28;19920;-69
2022/05/11 10:39:44;;;;;;;;;;;24.60;48.40;;;;;;5093396;28;19912;-69
2022/05/11 10:42:23;;;;;;;;;;;24.90;47.50;;;;;;5092797;28;20060;-68
2022/05/11 10:44:54;;;;;;;;;;;25.10;47.20;;;;;;5093232;28;20007;-69
2022/05/11 10:47:49;;;;;;;;;;;25.10;46.70;;;;;;5092666;28;19916;-69
2022/05/11 10:50:29;;;;;;;;;;;25.00;47.30;;;;;;5079461;28;20000;-68
2022/05/11 10:53:03;;;;;;;;;;;24.90;47.70;;;;;;5092677;28;19977;-69
2022/05/11 10:55:34;;;;;;;;;;;24.40;47.90;;;;;;5092733;28;19923;-68
2022/05/11 10:58:10;;;;;;;;;;;24.30;48.00;;;;;;5092227;28;19952;-69
2022/05/11 11:00:40;;;;;;;;;;;24.20;48.00;;;;;;5090959;28;19919;-70
2022/05/11 11:03:24;;;;;;;;;;;23.80;48.10;;;;;;5092418;28;19908;-72
2022/05/11 11:09:06;;;;;;;;;;;22.70;49.20;;;;;;5068200;28;19916;-71
2022/05/11 11:11:53;;;;;;;;;;;22.00;50.00;;;;;;5092385;28;19923;-71
2022/05/11 11:14:32;;;;;;;;;;;22.10;50.90;;;;;;5092419;28;20363;-71
2022/05/11 11:16:58;;;;;;;;;;;22.60;50.40;;;;;;5092394;28;19918;-71
2022/05/11 11:19:24;;;;;;;;;;;23.10;50.30;;;;;;5092288;28;20407;-70
2022/05/11 11:21:49;;;;;;;;;;;23.50;49.70;;;;;;5092068;28;19912;-70
2022/05/11 11:24:17;;;;;;;;;;;23.90;49.40;;;;;;5092498;28;19923;-71
2022/05/11 11:26:42;;;;;;;;;;;24.00;49.10;;;;;;5092233;28;19920;-71
2022/05/11 11:29:08;;;;;;;;;;;23.80;49.10;;;;;;5092519;28;19985;-72
2022/05/11 11:31:53;;;;;;;;;;;23.60;49.40;;;;;;5091650;28;19916;-72
2022/05/11 11:34:20;;;;;;;;;;;23.30;49.60;;;;;;5091806;28;19916;-71
2022/05/11 11:36:46;;;;;;;;;;;23.20;50.50;;;;;;5090512;28;19916;-71
2022/05/11 11:39:14;;;;;;;;;;;22.90;50.70;;;;;;5092199;28;20205;-71
2022/05/11 11:41:42;;;;;;;;;;;22.90;50.80;;;;;;5092055;28;20271;-71
2022/05/11 11:44:20;;;;;;;;;;;23.20;50.30;;;;;;5091599;28;19912;-72
2022/05/11 11:46:46;;;;;;;;;;;23.20;49.40;;;;;;5091617;28;19923;-71
2022/05/11 11:49:27;;;;;;;;;;;22.90;49.70;;;;;;5092060;28;19912;-72
2022/05/11 11:52:07;;;;;;;;;;;22.90;50.70;;;;;;5090384;28;20023;-72
2022/05/11 11:54:36;;;;;;;;;;;22.80;51.10;;;;;;5090557;28;19912;-71
2022/05/11 11:57:04;;;;;;;;;;;22.80;51.40;;;;;;5090287;28;20331;-71
2022/05/11 11:59:29;;;;;;;;;;;22.70;51.10;;;;;;5091974;28;20007;-71
2022/05/11 12:01:57;;;;;;;;;;;22.30;51.10;;;;;;5091522;28;20386;-71
2022/05/11 12:04:27;;;;;;;;;;;22.40;51.20;;;;;;5091697;28;19919;-72
2022/05/11 12:15:30;;;;;;;;;;;23.30;49.50;;;;;;5092315;28;19965;-71
2022/05/11 12:17:55;;;;;;;;;;;23.30;49.50;;;;;;5091835;28;19916;-71
2022/05/11 12:20:21;;;;;;;;;;;23.40;49.60;;;;;;5076000;28;20007;-71
2022/05/11 12:22:51;;;;;;;;;;;23.60;50.00;;;;;;5095653;28;19957;-70
2022/05/11 12:25:38;;;;;;;;;;;23.80;49.60;;;;;;5095689;28;19920;-72
2022/05/11 12:28:22;;;;;;;;;;;23.80;49.80;;;;;;5095551;28;19912;-70
2022/05/11 12:30:48;;;;;;;;;;;23.60;50.40;;;;;;5095559;28;20261;-71
2022/05/11 12:33:21;;;;;;;;;;;23.60;50.20;;;;;;5095445;28;19962;-71
2022/05/11 12:35:49;;;;;;;;;;;23.50;49.40;;;;;;5095755;28;19922;-72
2022/05/11 12:38:24;;;;;;;;;;;23.30;49.70;;;;;;5095582;28;19974;-71
2022/05/11 12:40:51;;;;;;;;;;;23.30;50.20;;;;;;5093979;28;19912;-73
2022/05/11 12:43:23;;;;;;;;;;;23.30;50.70;;;;;;5095161;28;20304;-70
2022/05/11 12:45:50;;;;;;;;;;;23.30;49.20;;;;;;5095130;28;19942;-70
2022/05/11 12:48:16;;;;;;;;;;;23.10;49.00;;;;;;5095092;28;19939;-70
2022/05/11 12:50:50;;;;;;;;;;;22.80;49.80;;;;;;5095141;28;19947;-71
2022/05/11 12:53:16;;;;;;;;;;;22.70;50.80;;;;;;5095444;28;19912;-72
2022/05/11 12:55:42;;;;;;;;;;;22.60;51.00;;;;;;5095564;28;19923;-71
2022/05/11 12:58:07;;;;;;;;;;;22.60;50.40;;;;;;5095006;28;19908;-72
2022/05/11 13:00:34;;;;;;;;;;;22.60;50.20;;;;;;5094923;28;20355;-71
2022/05/11 13:03:00;;;;;;;;;;;22.50;50.50;;;;;;5094491;28;19923;-71
2022/05/11 13:05:27;;;;;;;;;;;22.40;51.30;;;;;;5094714;28;19919;-72
2022/05/11 13:07:57;;;;;;;;;;;22.20;51.30;;;;;;5094643;28;20473;-71
2022/05/11 13:10:34;;;;;;;;;;;22.00;52.00;;;;;;5094739;28;19928;-70
2022/05/11 13:13:01;;;;;;;;;;;21.80;52.40;;;;;;5094913;28;19908;-72
2022/05/11 13:15:31;;;;;;;;;;;21.80;52.20;;;;;;5094751;28;19924;-72
2022/05/11 13:17:56;;;;;;;;;;;21.80;51.60;;;;;;5094947;28;19908;-72
2022/05/11 13:20:25;;;;;;;;;;;21.70;51.80;;;;;;5094388;28;19946;-70
2022/05/11 13:22:50;;;;;;;;;;;21.60;52.30;;;;;;5095247;28;19914;-71
2022/05/11 13:25:36;;;;;;;;;;;21.60;52.90;;;;;;5093271;28;20438;-70
2022/05/11 13:28:21;;;;;;;;;;;21.60;53.30;;;;;;5094463;28;19924;-71
2022/05/11 13:30:47;;;;;;;;;;;21.50;53.10;;;;;;5094145;28;19961;-70
2022/05/11 13:33:26;;;;;;;;;;;21.50;53.10;;;;;;5093580;28;20317;-71
2022/05/11 13:36:11;;;;;;;;;;;21.40;53.00;;;;;;5094427;28;19919;-71
2022/05/11 13:38:37;;;;;;;;;;;21.40;52.80;;;;;;5094679;28;20359;-71
2022/05/11 13:41:04;;;;;;;;;;;21.40;53.10;;;;;;5094337;28;19919;-70
2022/05/11 13:43:31;;;;;;;;;;;21.20;53.20;;;;;;5094156;28;19943;-71
2022/05/11 13:45:57;;;;;;;;;;;21.10;53.20;;;;;;5094609;28;19912;-71
2022/05/11 13:48:24;;;;;;;;;;;21.10;54.00;;;;;;5094299;28;19965;-71
2022/05/11 13:50:50;;;;;;;;;;;21.10;54.20;;;;;;5094002;28;19999;-71
2022/05/11 13:53:20;;;;;;;;;;;21.00;53.50;;;;;;5093873;28;19939;-71
2022/05/11 13:56:04;;;;;;;;;;;21.00;53.70;;;;;;5094025;28;19912;-70
2022/05/11 13:58:41;;;;;;;;;;;21.00;54.00;;;;;;5094098;28;19912;-72
2022/05/11 14:01:08;;;;;;;;;;;21.00;54.10;;;;;;5093877;28;19957;-70
2022/05/11 14:03:38;;;;;;;;;;;21.00;53.90;;;;;;5093849;28;20007;-72
2022/05/11 14:06:04;;;;;;;;;;;21.00;53.50;;;;;;5093576;28;19912;-71
2022/05/11 14:08:29;;;;;;;;;;;21.00;53.40;;;;;;5093562;28;19966;-71
2022/05/11 14:10:55;;;;;;;;;;;21.00;52.50;;;;;;5093663;28;19920;-71
2022/05/11 14:13:21;;;;;;;;;;;20.90;53.00;;;;;;5093893;28;20271;-71
2022/05/11 14:15:48;;;;;;;;;;;20.90;53.50;;;;;;5093175;28;19912;-73
2022/05/11 14:18:16;;;;;;;;;;;21.00;53.10;;;;;;5091856;28;19912;-70
2022/05/11 14:20:42;;;;;;;;;;;20.90;53.80;;;;;;5091663;28;20005;-73
2022/05/11 14:23:08;;;;;;;;;;;20.70;53.60;;;;;;5093338;28;19912;-71
2022/05/11 14:25:34;;;;;;;;;;;20.70;54.60;;;;;;5093042;28;20394;-70
2022/05/11 14:27:59;;;;;;;;;;;20.60;54.80;;;;;;5093407;28;19918;-71
2022/05/11 14:30:25;;;;;;;;;;;20.60;53.70;;;;;;5093150;28;19916;-71
2022/05/11 14:32:51;;;;;;;;;;;20.60;53.80;;;;;;5093234;28;19998;-71
2022/05/11 14:35:21;;;;;;;;;;;20.40;54.70;;;;;;5093004;28;19931;-71
2022/05/11 14:37:46;;;;;;;;;;;20.50;54.10;;;;;;5093249;28;20364;-71
2022/05/11 14:40:13;;;;;;;;;;;20.50;53.60;;;;;;5093703;28;19908;-72
2022/05/11 14:42:39;;;;;;;;;;;20.40;54.30;;;;;;5092657;28;19926;-71
2022/05/11 14:45:05;;;;;;;;;;;20.40;54.40;;;;;;5093320;28;19987;-71
2022/05/11 14:47:31;;;;;;;;;;;20.40;54.50;;;;;;5093130;28;20391;-71
2022/05/11 14:49:58;;;;;;;;;;;20.40;55.00;;;;;;5093474;28;20360;-72
2022/05/11 14:52:23;;;;;;;;;;;20.40;54.80;;;;;;5092953;28;20355;-71
2022/05/11 14:54:49;;;;;;;;;;;20.30;54.70;;;;;;5093041;28;19912;-72
2022/05/11 15:02:43;;;;;;;;;;;20.40;54.70;;;;;;5092827;28;19923;-72
2022/05/11 15:05:11;;;;;;;;;;;20.20;54.90;;;;;;5092837;28;19939;-71
2022/05/11 15:07:37;;;;;;;;;;;20.20;55.20;;;;;;5092568;28;20018;-71
2022/05/11 15:10:03;;;;;;;;;;;20.20;55.20;;;;;;5092833;28;19943;-71
2022/05/11 15:15:13;;;;;;;;;;;20.10;55.50;;;;;;5093041;28;19955;-72
2022/05/11 15:17:38;;;;;;;;;;;20.20;55.50;;;;;;5092348;28;19956;-72
2022/05/11 15:20:06;;;;;;;;;;;20.20;55.80;;;;;;5090850;28;20010;-71